sensor_id;sensor_type;location;lat;lon;timestamp;P1;durP1;ratioP1;P2;durP2;ratioP2
26598;SDS011;14240;51.064;16.612;2022-10-17T00:01:58;45.95;;;27.98;;
26598;SDS011;14240;51.064;16.612;2022-10-17T00:04:24;52.22;;;30.45;;
26598;SDS011;14240;51.064;16.612;2022-10-17T00:06:49;50.80;;;30.08;;
26598;SDS011;14240;51.064;16.612;2022-10-17T00:09:15;42.92;;;27.20;;
26598;SDS011;14240;51.064;16.612;2022-10-17T00:11:41;51.08;;;28.35;;
26598;SDS011;14240;51.064;16.612;2022-10-17T00:14:06;50.05;;;28.08;;
26598;SDS011;14240;51.064;16.612;2022-10-17T00:16:33;45.85;;;27.35;;
26598;SDS011;14240;51.064;16.612;2022-10-17T00:19:01;47.28;;;26.85;;
26598;SDS011;14240;51.064;16.612;2022-10-17T00:21:30;48.33;;;28.60;;
26598;SDS011;14240;51.064;16.612;2022-10-17T00:23:57;47.40;;;27.83;;
26598;SDS011;14240;51.064;16.612;2022-10-17T00:26:23;47.38;;;28.30;;
26598;SDS011;14240;51.064;16.612;2022-10-17T00:28:50;51.85;;;28.10;;
26598;SDS011;14240;51.064;16.612;2022-10-17T00:31:17;48.35;;;28.45;;
26598;SDS011;14240;51.064;16.612;2022-10-17T00:33:44;50.42;;;28.67;;
26598;SDS011;14240;51.064;16.612;2022-10-17T00:36:12;51.45;;;30.50;;
26598;SDS011;14240;51.064;16.612;2022-10-17T00:38:47;53.90;;;29.45;;
26598;SDS011;14240;51.064;16.612;2022-10-17T00:41:18;53.78;;;31.63;;
26598;SDS011;14240;51.064;16.612;2022-10-17T00:46:23;52.40;;;29.80;;
26598;SDS011;14240;51.064;16.612;2022-10-17T00:48:51;55.50;;;31.70;;
26598;SDS011;14240;51.064;16.612;2022-10-17T00:51:18;49.55;;;28.63;;
26598;SDS011;14240;51.064;16.612;2022-10-17T00:53:50;56.20;;;31.75;;
26598;SDS011;14240;51.064;16.612;2022-10-17T00:56:17;53.65;;;31.77;;
26598;SDS011;14240;51.064;16.612;2022-10-17T00:58:44;59.67;;;32.45;;
26598;SDS011;14240;51.064;16.612;2022-10-17T01:01:10;52.70;;;31.70;;
26598;SDS011;14240;51.064;16.612;2022-10-17T01:03:36;49.08;;;30.33;;
26598;SDS011;14240;51.064;16.612;2022-10-17T01:06:02;53.00;;;31.38;;
26598;SDS011;14240;51.064;16.612;2022-10-17T01:08:28;53.95;;;31.02;;
26598;SDS011;14240;51.064;16.612;2022-10-17T01:13:38;55.15;;;32.00;;
26598;SDS011;14240;51.064;16.612;2022-10-17T01:16:38;57.95;;;32.40;;
26598;SDS011;14240;51.064;16.612;2022-10-17T01:19:40;55.45;;;31.88;;
26598;SDS011;14240;51.064;16.612;2022-10-17T01:22:32;57.50;;;30.80;;
26598;SDS011;14240;51.064;16.612;2022-10-17T01:31:11;52.40;;;29.23;;
26598;SDS011;14240;51.064;16.612;2022-10-17T01:39:22;48.85;;;29.15;;
26598;SDS011;14240;51.064;16.612;2022-10-17T01:42:14;46.58;;;28.95;;
26598;SDS011;14240;51.064;16.612;2022-10-17T01:47:22;51.50;;;31.02;;
26598;SDS011;14240;51.064;16.612;2022-10-17T01:49:52;49.25;;;28.90;;
26598;SDS011;14240;51.064;16.612;2022-10-17T01:52:26;50.70;;;28.25;;
26598;SDS011;14240;51.064;16.612;2022-10-17T01:55:07;50.55;;;28.52;;
26598;SDS011;14240;51.064;16.612;2022-10-17T01:57:40;48.65;;;28.30;;
26598;SDS011;14240;51.064;16.612;2022-10-17T02:00:22;48.22;;;27.17;;
26598;SDS011;14240;51.064;16.612;2022-10-17T02:02:51;48.92;;;26.80;;
26598;SDS011;14240;51.064;16.612;2022-10-17T02:05:23;46.42;;;25.90;;
26598;SDS011;14240;51.064;16.612;2022-10-17T02:07:53;49.85;;;27.58;;
26598;SDS011;14240;51.064;16.612;2022-10-17T02:10:29;46.80;;;25.85;;
26598;SDS011;14240;51.064;16.612;2022-10-17T02:16:07;42.85;;;25.40;;
26598;SDS011;14240;51.064;16.612;2022-10-17T02:21:20;46.28;;;27.20;;
26598;SDS011;14240;51.064;16.612;2022-10-17T02:24:19;43.55;;;26.33;;
26598;SDS011;14240;51.064;16.612;2022-10-17T02:26:54;44.92;;;27.88;;
26598;SDS011;14240;51.064;16.612;2022-10-17T02:29:26;45.63;;;26.45;;
26598;SDS011;14240;51.064;16.612;2022-10-17T02:31:57;45.10;;;26.15;;
26598;SDS011;14240;51.064;16.612;2022-10-17T02:34:36;45.03;;;26.08;;
26598;SDS011;14240;51.064;16.612;2022-10-17T02:37:06;46.33;;;26.52;;
26598;SDS011;14240;51.064;16.612;2022-10-17T02:39:33;42.30;;;24.30;;
26598;SDS011;14240;51.064;16.612;2022-10-17T02:42:02;44.45;;;27.52;;
26598;SDS011;14240;51.064;16.612;2022-10-17T02:44:31;49.80;;;27.98;;
26598;SDS011;14240;51.064;16.612;2022-10-17T02:50:17;44.97;;;27.10;;
26598;SDS011;14240;51.064;16.612;2022-10-17T02:52:49;49.92;;;27.70;;
26598;SDS011;14240;51.064;16.612;2022-10-17T02:55:21;46.92;;;27.38;;
26598;SDS011;14240;51.064;16.612;2022-10-17T02:58:05;42.75;;;26.15;;
26598;SDS011;14240;51.064;16.612;2022-10-17T03:00:35;44.03;;;26.23;;
26598;SDS011;14240;51.064;16.612;2022-10-17T03:03:16;45.10;;;25.75;;
26598;SDS011;14240;51.064;16.612;2022-10-17T03:05:43;46.60;;;26.73;;
26598;SDS011;14240;51.064;16.612;2022-10-17T03:08:08;44.83;;;25.15;;
26598;SDS011;14240;51.064;16.612;2022-10-17T03:10:35;46.38;;;25.85;;
26598;SDS011;14240;51.064;16.612;2022-10-17T03:13:01;41.40;;;23.77;;
26598;SDS011;14240;51.064;16.612;2022-10-17T03:15:26;50.50;;;28.75;;
26598;SDS011;14240;51.064;16.612;2022-10-17T03:17:52;50.95;;;27.38;;
26598;SDS011;14240;51.064;16.612;2022-10-17T03:20:18;52.15;;;27.52;;
26598;SDS011;14240;51.064;16.612;2022-10-17T03:22:44;48.05;;;26.20;;
26598;SDS011;14240;51.064;16.612;2022-10-17T03:25:09;44.05;;;26.25;;
26598;SDS011;14240;51.064;16.612;2022-10-17T03:27:35;47.10;;;25.65;;
26598;SDS011;14240;51.064;16.612;2022-10-17T03:30:00;43.85;;;23.90;;
26598;SDS011;14240;51.064;16.612;2022-10-17T03:32:26;40.28;;;23.88;;
26598;SDS011;14240;51.064;16.612;2022-10-17T03:34:51;45.42;;;24.23;;
26598;SDS011;14240;51.064;16.612;2022-10-17T03:37:17;41.30;;;23.85;;
26598;SDS011;14240;51.064;16.612;2022-10-17T03:39:42;41.33;;;24.42;;
26598;SDS011;14240;51.064;16.612;2022-10-17T03:42:08;42.63;;;24.83;;
26598;SDS011;14240;51.064;16.612;2022-10-17T03:44:34;46.40;;;26.33;;
26598;SDS011;14240;51.064;16.612;2022-10-17T03:46:59;44.38;;;24.75;;
26598;SDS011;14240;51.064;16.612;2022-10-17T03:49:25;49.40;;;25.15;;
26598;SDS011;14240;51.064;16.612;2022-10-17T03:51:50;49.17;;;27.50;;
26598;SDS011;14240;51.064;16.612;2022-10-17T03:54:16;49.45;;;26.63;;
26598;SDS011;14240;51.064;16.612;2022-10-17T03:56:41;44.53;;;24.98;;
26598;SDS011;14240;51.064;16.612;2022-10-17T03:59:09;48.95;;;26.15;;
26598;SDS011;14240;51.064;16.612;2022-10-17T04:01:38;50.70;;;27.70;;
26598;SDS011;14240;51.064;16.612;2022-10-17T04:04:03;44.17;;;24.80;;
26598;SDS011;14240;51.064;16.612;2022-10-17T04:06:29;47.65;;;27.20;;
26598;SDS011;14240;51.064;16.612;2022-10-17T04:08:55;48.00;;;26.67;;
26598;SDS011;14240;51.064;16.612;2022-10-17T04:11:21;50.55;;;28.10;;
26598;SDS011;14240;51.064;16.612;2022-10-17T04:13:46;54.85;;;26.38;;
26598;SDS011;14240;51.064;16.612;2022-10-17T04:16:16;49.28;;;28.83;;
26598;SDS011;14240;51.064;16.612;2022-10-17T04:18:42;42.08;;;26.90;;
26598;SDS011;14240;51.064;16.612;2022-10-17T04:21:08;45.05;;;26.65;;
26598;SDS011;14240;51.064;16.612;2022-10-17T04:23:34;49.30;;;27.80;;
26598;SDS011;14240;51.064;16.612;2022-10-17T04:26:01;47.05;;;26.73;;
26598;SDS011;14240;51.064;16.612;2022-10-17T04:28:27;46.28;;;25.85;;
26598;SDS011;14240;51.064;16.612;2022-10-17T04:31:03;50.55;;;28.10;;
26598;SDS011;14240;51.064;16.612;2022-10-17T04:33:36;53.97;;;27.48;;
26598;SDS011;14240;51.064;16.612;2022-10-17T04:36:02;50.03;;;27.85;;
26598;SDS011;14240;51.064;16.612;2022-10-17T04:38:30;50.35;;;28.10;;
26598;SDS011;14240;51.064;16.612;2022-10-17T04:40:56;52.30;;;27.35;;
26598;SDS011;14240;51.064;16.612;2022-10-17T04:43:24;52.35;;;27.67;;
26598;SDS011;14240;51.064;16.612;2022-10-17T04:45:50;50.28;;;27.10;;
26598;SDS011;14240;51.064;16.612;2022-10-17T04:48:15;46.17;;;25.63;;
26598;SDS011;14240;51.064;16.612;2022-10-17T04:50:41;55.20;;;27.15;;
26598;SDS011;14240;51.064;16.612;2022-10-17T04:53:27;47.90;;;26.92;;
26598;SDS011;14240;51.064;16.612;2022-10-17T04:55:55;51.80;;;26.88;;
26598;SDS011;14240;51.064;16.612;2022-10-17T04:58:21;55.10;;;25.90;;
26598;SDS011;14240;51.064;16.612;2022-10-17T05:00:47;49.92;;;26.25;;
26598;SDS011;14240;51.064;16.612;2022-10-17T05:03:13;43.63;;;24.10;;
26598;SDS011;14240;51.064;16.612;2022-10-17T05:05:39;49.30;;;26.23;;
26598;SDS011;14240;51.064;16.612;2022-10-17T05:08:06;54.03;;;25.88;;
26598;SDS011;14240;51.064;16.612;2022-10-17T05:10:42;56.20;;;26.53;;
26598;SDS011;14240;51.064;16.612;2022-10-17T05:13:08;49.92;;;26.45;;
26598;SDS011;14240;51.064;16.612;2022-10-17T05:15:36;55.25;;;26.88;;
26598;SDS011;14240;51.064;16.612;2022-10-17T05:18:02;52.03;;;25.67;;
26598;SDS011;14240;51.064;16.612;2022-10-17T05:20:29;46.20;;;24.45;;
26598;SDS011;14240;51.064;16.612;2022-10-17T05:22:57;47.75;;;24.58;;
26598;SDS011;14240;51.064;16.612;2022-10-17T05:25:23;54.33;;;24.52;;
26598;SDS011;14240;51.064;16.612;2022-10-17T05:27:49;42.65;;;22.60;;
26598;SDS011;14240;51.064;16.612;2022-10-17T05:30:15;45.10;;;23.15;;
26598;SDS011;14240;51.064;16.612;2022-10-17T05:32:41;46.05;;;24.27;;
26598;SDS011;14240;51.064;16.612;2022-10-17T05:35:06;48.83;;;23.73;;
26598;SDS011;14240;51.064;16.612;2022-10-17T05:37:32;60.75;;;26.90;;
26598;SDS011;14240;51.064;16.612;2022-10-17T05:39:58;47.58;;;24.15;;
26598;SDS011;14240;51.064;16.612;2022-10-17T05:42:23;49.75;;;24.50;;
26598;SDS011;14240;51.064;16.612;2022-10-17T05:44:49;50.00;;;23.85;;
26598;SDS011;14240;51.064;16.612;2022-10-17T05:47:15;45.15;;;24.25;;
26598;SDS011;14240;51.064;16.612;2022-10-17T05:49:41;48.20;;;24.30;;
26598;SDS011;14240;51.064;16.612;2022-10-17T05:52:06;50.22;;;25.45;;
26598;SDS011;14240;51.064;16.612;2022-10-17T05:54:32;49.03;;;26.70;;
26598;SDS011;14240;51.064;16.612;2022-10-17T05:56:58;53.63;;;26.98;;
26598;SDS011;14240;51.064;16.612;2022-10-17T05:59:24;50.42;;;26.85;;
26598;SDS011;14240;51.064;16.612;2022-10-17T06:01:50;136.43;;;68.07;;
26598;SDS011;14240;51.064;16.612;2022-10-17T06:04:16;72.40;;;38.33;;
26598;SDS011;14240;51.064;16.612;2022-10-17T06:06:42;59.95;;;33.08;;
26598;SDS011;14240;51.064;16.612;2022-10-17T06:09:07;54.38;;;26.75;;
26598;SDS011;14240;51.064;16.612;2022-10-17T06:11:33;53.78;;;27.33;;
26598;SDS011;14240;51.064;16.612;2022-10-17T06:13:59;43.25;;;23.77;;
26598;SDS011;14240;51.064;16.612;2022-10-17T06:16:25;44.65;;;23.80;;
26598;SDS011;14240;51.064;16.612;2022-10-17T06:18:51;54.95;;;28.70;;
26598;SDS011;14240;51.064;16.612;2022-10-17T06:21:18;98.40;;;49.83;;
26598;SDS011;14240;51.064;16.612;2022-10-17T06:23:46;55.15;;;30.27;;
26598;SDS011;14240;51.064;16.612;2022-10-17T06:26:12;51.30;;;25.00;;
26598;SDS011;14240;51.064;16.612;2022-10-17T06:28:38;47.38;;;26.48;;
26598;SDS011;14240;51.064;16.612;2022-10-17T06:31:08;51.05;;;24.02;;
26598;SDS011;14240;51.064;16.612;2022-10-17T06:33:35;73.82;;;41.30;;
26598;SDS011;14240;51.064;16.612;2022-10-17T06:36:01;52.05;;;28.55;;
26598;SDS011;14240;51.064;16.612;2022-10-17T06:38:27;49.30;;;26.45;;
26598;SDS011;14240;51.064;16.612;2022-10-17T06:40:53;50.92;;;26.73;;
26598;SDS011;14240;51.064;16.612;2022-10-17T06:43:21;48.22;;;25.30;;
26598;SDS011;14240;51.064;16.612;2022-10-17T06:45:46;47.42;;;25.05;;
26598;SDS011;14240;51.064;16.612;2022-10-17T06:48:12;45.33;;;24.63;;
26598;SDS011;14240;51.064;16.612;2022-10-17T06:50:38;50.38;;;26.95;;
26598;SDS011;14240;51.064;16.612;2022-10-17T06:53:04;45.00;;;25.23;;
26598;SDS011;14240;51.064;16.612;2022-10-17T06:55:30;44.78;;;24.42;;
26598;SDS011;14240;51.064;16.612;2022-10-17T06:57:56;45.45;;;24.30;;
26598;SDS011;14240;51.064;16.612;2022-10-17T07:00:22;50.25;;;25.33;;
26598;SDS011;14240;51.064;16.612;2022-10-17T07:02:48;50.92;;;23.48;;
26598;SDS011;14240;51.064;16.612;2022-10-17T07:05:14;44.20;;;23.42;;
26598;SDS011;14240;51.064;16.612;2022-10-17T07:07:40;38.75;;;22.30;;
26598;SDS011;14240;51.064;16.612;2022-10-17T07:10:05;45.80;;;24.25;;
26598;SDS011;14240;51.064;16.612;2022-10-17T07:12:34;31.55;;;21.05;;
26598;SDS011;14240;51.064;16.612;2022-10-17T07:15:00;36.28;;;21.67;;
26598;SDS011;14240;51.064;16.612;2022-10-17T07:17:28;34.05;;;19.83;;
26598;SDS011;14240;51.064;16.612;2022-10-17T07:19:54;32.25;;;19.45;;
26598;SDS011;14240;51.064;16.612;2022-10-17T07:22:20;25.60;;;17.55;;
26598;SDS011;14240;51.064;16.612;2022-10-17T07:24:45;27.20;;;17.30;;
26598;SDS011;14240;51.064;16.612;2022-10-17T07:27:11;26.92;;;16.27;;
26598;SDS011;14240;51.064;16.612;2022-10-17T07:29:38;31.85;;;16.98;;
26598;SDS011;14240;51.064;16.612;2022-10-17T07:32:03;24.67;;;16.63;;
26598;SDS011;14240;51.064;16.612;2022-10-17T07:34:32;29.02;;;17.00;;
26598;SDS011;14240;51.064;16.612;2022-10-17T07:37:00;24.55;;;17.55;;
26598;SDS011;14240;51.064;16.612;2022-10-17T07:39:26;28.55;;;18.55;;
26598;SDS011;14240;51.064;16.612;2022-10-17T07:41:52;27.52;;;18.77;;
26598;SDS011;14240;51.064;16.612;2022-10-17T07:44:18;24.85;;;18.23;;
26598;SDS011;14240;51.064;16.612;2022-10-17T07:46:44;28.23;;;17.92;;
26598;SDS011;14240;51.064;16.612;2022-10-17T07:49:09;23.13;;;17.08;;
26598;SDS011;14240;51.064;16.612;2022-10-17T07:51:35;26.02;;;18.05;;
26598;SDS011;14240;51.064;16.612;2022-10-17T07:54:00;23.73;;;16.40;;
26598;SDS011;14240;51.064;16.612;2022-10-17T07:56:26;25.88;;;16.13;;
26598;SDS011;14240;51.064;16.612;2022-10-17T07:58:54;25.52;;;17.27;;
26598;SDS011;14240;51.064;16.612;2022-10-17T08:01:21;22.98;;;16.55;;
26598;SDS011;14240;51.064;16.612;2022-10-17T08:03:46;28.25;;;17.48;;
26598;SDS011;14240;51.064;16.612;2022-10-17T08:06:15;23.27;;;16.92;;
26598;SDS011;14240;51.064;16.612;2022-10-17T08:08:41;24.75;;;16.98;;
26598;SDS011;14240;51.064;16.612;2022-10-17T08:11:09;21.17;;;16.52;;
26598;SDS011;14240;51.064;16.612;2022-10-17T08:13:36;23.65;;;16.83;;
26598;SDS011;14240;51.064;16.612;2022-10-17T08:16:03;21.38;;;16.65;;
26598;SDS011;14240;51.064;16.612;2022-10-17T08:18:32;25.52;;;17.13;;
26598;SDS011;14240;51.064;16.612;2022-10-17T08:20:59;21.80;;;16.73;;
26598;SDS011;14240;51.064;16.612;2022-10-17T08:23:26;27.33;;;17.75;;
26598;SDS011;14240;51.064;16.612;2022-10-17T08:25:52;20.70;;;15.75;;
26598;SDS011;14240;51.064;16.612;2022-10-17T08:28:17;19.33;;;14.77;;
26598;SDS011;14240;51.064;16.612;2022-10-17T08:30:43;20.02;;;13.85;;
26598;SDS011;14240;51.064;16.612;2022-10-17T08:33:08;20.60;;;15.70;;
26598;SDS011;14240;51.064;16.612;2022-10-17T08:35:34;19.95;;;15.48;;
26598;SDS011;14240;51.064;16.612;2022-10-17T08:38:00;18.25;;;14.30;;
26598;SDS011;14240;51.064;16.612;2022-10-17T08:40:26;18.67;;;14.93;;
26598;SDS011;14240;51.064;16.612;2022-10-17T08:45:31;21.98;;;15.13;;
26598;SDS011;14240;51.064;16.612;2022-10-17T08:48:01;20.65;;;15.18;;
26598;SDS011;14240;51.064;16.612;2022-10-17T08:50:37;19.90;;;15.32;;
26598;SDS011;14240;51.064;16.612;2022-10-17T08:53:11;20.92;;;15.32;;
26598;SDS011;14240;51.064;16.612;2022-10-17T08:55:59;16.80;;;14.05;;
26598;SDS011;14240;51.064;16.612;2022-10-17T08:58:32;18.67;;;13.75;;
26598;SDS011;14240;51.064;16.612;2022-10-17T09:06:20;15.85;;;14.05;;
26598;SDS011;14240;51.064;16.612;2022-10-17T09:09:00;17.60;;;13.77;;
26598;SDS011;14240;51.064;16.612;2022-10-17T09:11:55;17.10;;;14.18;;
26598;SDS011;14240;51.064;16.612;2022-10-17T09:16:58;16.50;;;13.53;;
26598;SDS011;14240;51.064;16.612;2022-10-17T09:19:42;15.93;;;13.40;;
26598;SDS011;14240;51.064;16.612;2022-10-17T09:22:33;15.70;;;14.13;;
26598;SDS011;14240;51.064;16.612;2022-10-17T09:25:14;18.67;;;13.50;;
26598;SDS011;14240;51.064;16.612;2022-10-17T09:28:01;14.20;;;12.80;;
26598;SDS011;14240;51.064;16.612;2022-10-17T09:33:55;15.02;;;13.45;;
26598;SDS011;14240;51.064;16.612;2022-10-17T09:36:22;16.75;;;14.73;;
26598;SDS011;14240;51.064;16.612;2022-10-17T09:38:54;16.77;;;14.63;;
26598;SDS011;14240;51.064;16.612;2022-10-17T09:41:23;15.13;;;13.30;;
26598;SDS011;14240;51.064;16.612;2022-10-17T09:49:31;19.27;;;13.93;;
26598;SDS011;14240;51.064;16.612;2022-10-17T09:51:59;17.20;;;13.50;;
26598;SDS011;14240;51.064;16.612;2022-10-17T09:54:28;13.40;;;12.00;;
26598;SDS011;14240;51.064;16.612;2022-10-17T09:57:05;16.25;;;12.90;;
26598;SDS011;14240;51.064;16.612;2022-10-17T10:07:23;17.17;;;12.70;;
26598;SDS011;14240;51.064;16.612;2022-10-17T10:09:50;14.93;;;12.50;;
26598;SDS011;14240;51.064;16.612;2022-10-17T10:12:18;15.80;;;13.02;;
26598;SDS011;14240;51.064;16.612;2022-10-17T10:14:44;15.35;;;12.30;;
26598;SDS011;14240;51.064;16.612;2022-10-17T10:19:57;14.13;;;12.15;;
26598;SDS011;14240;51.064;16.612;2022-10-17T10:22:23;16.08;;;12.18;;
26598;SDS011;14240;51.064;16.612;2022-10-17T10:27:46;17.95;;;11.73;;
26598;SDS011;14240;51.064;16.612;2022-10-17T10:30:16;17.52;;;11.77;;
26598;SDS011;14240;51.064;16.612;2022-10-17T10:32:44;16.85;;;12.65;;
26598;SDS011;14240;51.064;16.612;2022-10-17T10:37:47;18.13;;;10.85;;
26598;SDS011;14240;51.064;16.612;2022-10-17T10:40:25;16.73;;;11.50;;
26598;SDS011;14240;51.064;16.612;2022-10-17T10:42:52;14.68;;;10.95;;
26598;SDS011;14240;51.064;16.612;2022-10-17T10:45:24;16.15;;;11.45;;
26598;SDS011;14240;51.064;16.612;2022-10-17T10:47:51;16.10;;;11.18;;
26598;SDS011;14240;51.064;16.612;2022-10-17T10:50:55;17.90;;;11.73;;
26598;SDS011;14240;51.064;16.612;2022-10-17T10:53:24;14.57;;;10.43;;
26598;SDS011;14240;51.064;16.612;2022-10-17T10:56:08;14.18;;;10.43;;
26598;SDS011;14240;51.064;16.612;2022-10-17T11:06:51;16.30;;;11.50;;
26598;SDS011;14240;51.064;16.612;2022-10-17T11:09:44;13.27;;;10.73;;
26598;SDS011;14240;51.064;16.612;2022-10-17T11:12:23;18.08;;;11.32;;
26598;SDS011;14240;51.064;16.612;2022-10-17T11:20:19;22.45;;;12.32;;
26598;SDS011;14240;51.064;16.612;2022-10-17T11:23:18;17.63;;;12.40;;
26598;SDS011;14240;51.064;16.612;2022-10-17T11:26:12;17.75;;;10.88;;
26598;SDS011;14240;51.064;16.612;2022-10-17T11:28:49;19.33;;;11.20;;
26598;SDS011;14240;51.064;16.612;2022-10-17T11:31:16;15.77;;;11.00;;
26598;SDS011;14240;51.064;16.612;2022-10-17T11:33:57;14.60;;;10.45;;
26598;SDS011;14240;51.064;16.612;2022-10-17T11:36:30;22.92;;;11.57;;
26598;SDS011;14240;51.064;16.612;2022-10-17T11:39:03;14.82;;;10.43;;
26598;SDS011;14240;51.064;16.612;2022-10-17T11:41:38;19.73;;;11.95;;
26598;SDS011;14240;51.064;16.612;2022-10-17T11:46:47;16.65;;;11.60;;
26598;SDS011;14240;51.064;16.612;2022-10-17T11:49:19;19.63;;;11.13;;
26598;SDS011;14240;51.064;16.612;2022-10-17T11:54:34;16.50;;;11.25;;
26598;SDS011;14240;51.064;16.612;2022-10-17T12:00:01;15.38;;;10.80;;
26598;SDS011;14240;51.064;16.612;2022-10-17T12:02:49;17.70;;;12.02;;
26598;SDS011;14240;51.064;16.612;2022-10-17T12:08:27;14.95;;;11.38;;
26598;SDS011;14240;51.064;16.612;2022-10-17T12:15:57;18.00;;;11.63;;
26598;SDS011;14240;51.064;16.612;2022-10-17T12:18:42;15.77;;;11.55;;
26598;SDS011;14240;51.064;16.612;2022-10-17T12:21:08;23.38;;;11.32;;
26598;SDS011;14240;51.064;16.612;2022-10-17T12:23:34;20.10;;;11.60;;
26598;SDS011;14240;51.064;16.612;2022-10-17T12:26:03;16.10;;;11.00;;
26598;SDS011;14240;51.064;16.612;2022-10-17T12:31:13;14.30;;;10.32;;
26598;SDS011;14240;51.064;16.612;2022-10-17T12:33:51;24.20;;;12.27;;
26598;SDS011;14240;51.064;16.612;2022-10-17T12:46:42;20.30;;;10.90;;
26598;SDS011;14240;51.064;16.612;2022-10-17T12:52:20;24.85;;;11.70;;
26598;SDS011;14240;51.064;16.612;2022-10-17T13:00:12;19.73;;;12.02;;
26598;SDS011;14240;51.064;16.612;2022-10-17T13:02:42;15.32;;;10.93;;
26598;SDS011;14240;51.064;16.612;2022-10-17T13:05:13;16.95;;;10.77;;
26598;SDS011;14240;51.064;16.612;2022-10-17T13:07:54;17.13;;;11.13;;
26598;SDS011;14240;51.064;16.612;2022-10-17T13:10:24;13.40;;;10.23;;
26598;SDS011;14240;51.064;16.612;2022-10-17T13:13:02;17.08;;;10.65;;
26598;SDS011;14240;51.064;16.612;2022-10-17T13:15:37;14.50;;;11.05;;
26598;SDS011;14240;51.064;16.612;2022-10-17T13:18:04;19.67;;;11.18;;
26598;SDS011;14240;51.064;16.612;2022-10-17T13:20:30;13.55;;;9.82;;
26598;SDS011;14240;51.064;16.612;2022-10-17T13:22:56;19.80;;;11.23;;
26598;SDS011;14240;51.064;16.612;2022-10-17T13:25:23;18.83;;;10.90;;
26598;SDS011;14240;51.064;16.612;2022-10-17T13:27:58;17.42;;;10.43;;
26598;SDS011;14240;51.064;16.612;2022-10-17T13:30:29;17.50;;;11.27;;
26598;SDS011;14240;51.064;16.612;2022-10-17T13:32:59;13.95;;;10.70;;
26598;SDS011;14240;51.064;16.612;2022-10-17T13:35:27;18.77;;;11.23;;
26598;SDS011;14240;51.064;16.612;2022-10-17T13:37:55;17.45;;;10.73;;
26598;SDS011;14240;51.064;16.612;2022-10-17T13:40:24;23.45;;;12.38;;
26598;SDS011;14240;51.064;16.612;2022-10-17T13:42:53;17.35;;;10.77;;
26598;SDS011;14240;51.064;16.612;2022-10-17T13:45:23;18.08;;;11.35;;
26598;SDS011;14240;51.064;16.612;2022-10-17T13:48:04;16.13;;;10.60;;
26598;SDS011;14240;51.064;16.612;2022-10-17T13:50:35;18.33;;;11.80;;
26598;SDS011;14240;51.064;16.612;2022-10-17T13:53:28;24.75;;;15.43;;
26598;SDS011;14240;51.064;16.612;2022-10-17T13:56:04;23.27;;;14.70;;
26598;SDS011;14240;51.064;16.612;2022-10-17T13:58:51;19.95;;;11.40;;
26598;SDS011;14240;51.064;16.612;2022-10-17T14:01:22;20.77;;;12.30;;
26598;SDS011;14240;51.064;16.612;2022-10-17T14:03:49;17.08;;;10.65;;
26598;SDS011;14240;51.064;16.612;2022-10-17T14:09:07;20.92;;;10.25;;
26598;SDS011;14240;51.064;16.612;2022-10-17T14:13:59;15.63;;;11.30;;
26598;SDS011;14240;51.064;16.612;2022-10-17T14:18:58;18.05;;;11.57;;
26598;SDS011;14240;51.064;16.612;2022-10-17T14:21:25;15.55;;;10.75;;
26598;SDS011;14240;51.064;16.612;2022-10-17T14:24:14;19.15;;;12.15;;
26598;SDS011;14240;51.064;16.612;2022-10-17T14:26:49;21.08;;;11.55;;
26598;SDS011;14240;51.064;16.612;2022-10-17T14:32:00;17.92;;;12.10;;
26598;SDS011;14240;51.064;16.612;2022-10-17T14:34:35;17.98;;;10.65;;
26598;SDS011;14240;51.064;16.612;2022-10-17T14:37:09;18.52;;;11.60;;
26598;SDS011;14240;51.064;16.612;2022-10-17T14:39:47;17.58;;;11.63;;
26598;SDS011;14240;51.064;16.612;2022-10-17T14:42:20;16.90;;;11.05;;
26598;SDS011;14240;51.064;16.612;2022-10-17T14:44:50;17.10;;;11.02;;
26598;SDS011;14240;51.064;16.612;2022-10-17T14:47:19;20.42;;;12.15;;
26598;SDS011;14240;51.064;16.612;2022-10-17T14:49:51;18.25;;;12.57;;
26598;SDS011;14240;51.064;16.612;2022-10-17T14:52:29;20.10;;;11.23;;
26598;SDS011;14240;51.064;16.612;2022-10-17T14:54:56;17.70;;;13.18;;
26598;SDS011;14240;51.064;16.612;2022-10-17T14:57:24;19.38;;;11.95;;
26598;SDS011;14240;51.064;16.612;2022-10-17T14:59:53;17.83;;;11.93;;
26598;SDS011;14240;51.064;16.612;2022-10-17T15:02:20;20.20;;;13.63;;
26598;SDS011;14240;51.064;16.612;2022-10-17T15:04:46;23.13;;;12.55;;
26598;SDS011;14240;51.064;16.612;2022-10-17T15:07:13;24.00;;;12.65;;
26598;SDS011;14240;51.064;16.612;2022-10-17T15:12:06;20.05;;;12.77;;
26598;SDS011;14240;51.064;16.612;2022-10-17T15:14:46;25.75;;;13.43;;
26598;SDS011;14240;51.064;16.612;2022-10-17T15:17:33;19.80;;;12.13;;
26598;SDS011;14240;51.064;16.612;2022-10-17T15:19:58;19.88;;;11.45;;
26598;SDS011;14240;51.064;16.612;2022-10-17T15:22:24;30.30;;;12.80;;
26598;SDS011;14240;51.064;16.612;2022-10-17T15:24:50;19.48;;;12.15;;
26598;SDS011;14240;51.064;16.612;2022-10-17T15:27:17;23.55;;;13.80;;
26598;SDS011;14240;51.064;16.612;2022-10-17T15:29:45;21.42;;;12.10;;
26598;SDS011;14240;51.064;16.612;2022-10-17T15:32:11;23.40;;;13.52;;
26598;SDS011;14240;51.064;16.612;2022-10-17T15:34:37;26.52;;;13.48;;
26598;SDS011;14240;51.064;16.612;2022-10-17T15:37:03;22.00;;;13.23;;
26598;SDS011;14240;51.064;16.612;2022-10-17T15:39:30;22.42;;;13.70;;
26598;SDS011;14240;51.064;16.612;2022-10-17T15:41:55;24.60;;;12.48;;
26598;SDS011;14240;51.064;16.612;2022-10-17T15:44:21;19.98;;;12.55;;
26598;SDS011;14240;51.064;16.612;2022-10-17T15:46:47;31.13;;;12.50;;
26598;SDS011;14240;51.064;16.612;2022-10-17T15:49:13;24.40;;;12.20;;
26598;SDS011;14240;51.064;16.612;2022-10-17T15:51:41;22.50;;;11.48;;
26598;SDS011;14240;51.064;16.612;2022-10-17T15:54:07;24.20;;;12.07;;
26598;SDS011;14240;51.064;16.612;2022-10-17T15:59:02;24.67;;;11.65;;
26598;SDS011;14240;51.064;16.612;2022-10-17T16:01:35;19.13;;;11.13;;
26598;SDS011;14240;51.064;16.612;2022-10-17T16:04:00;22.35;;;11.45;;
26598;SDS011;14240;51.064;16.612;2022-10-17T16:06:26;23.15;;;12.15;;
26598;SDS011;14240;51.064;16.612;2022-10-17T16:08:52;20.67;;;10.95;;
26598;SDS011;14240;51.064;16.612;2022-10-17T16:11:19;23.42;;;11.75;;
26598;SDS011;14240;51.064;16.612;2022-10-17T16:13:52;19.70;;;10.88;;
26598;SDS011;14240;51.064;16.612;2022-10-17T16:16:20;26.38;;;12.73;;
26598;SDS011;14240;51.064;16.612;2022-10-17T16:18:48;58.95;;;22.73;;
26598;SDS011;14240;51.064;16.612;2022-10-17T16:21:14;56.92;;;27.27;;
26598;SDS011;14240;51.064;16.612;2022-10-17T16:23:40;46.20;;;22.08;;
26598;SDS011;14240;51.064;16.612;2022-10-17T16:26:07;38.65;;;18.48;;
26598;SDS011;14240;51.064;16.612;2022-10-17T16:28:33;36.38;;;18.73;;
26598;SDS011;14240;51.064;16.612;2022-10-17T16:30:59;42.45;;;23.00;;
26598;SDS011;14240;51.064;16.612;2022-10-17T16:33:25;38.67;;;18.85;;
26598;SDS011;14240;51.064;16.612;2022-10-17T16:35:52;36.42;;;18.05;;